Time;durP1;ratioP1;P1;durP2;ratioP2;P2;SDS_P1;SDS_P2;PMS_P1;PMS_P2;Temp;Humidity;BMP_temperature;BMP_pressure;BME280_temperature;BME280_humidity;BME280_pressure;Samples;Min_cycle;Max_cycle;Signal;HPM_P1;HPM_P2
2022/11/10 00:02:03;;;;;;;10.90;9.52;;;6.50;99.90;;;;;;5094210;28;20367;-52
2022/11/10 00:04:29;;;;;;;11.95;10.32;;;6.40;99.90;;;;;;5095110;28;20028;-51
2022/11/10 00:06:54;;;;;;;16.88;10.50;;;6.40;99.90;;;;;;5094545;28;20016;-55
2022/11/10 00:09:20;;;;;;;12.00;10.80;;;6.40;99.90;;;;;;5095887;28;20378;-52
2022/11/10 00:11:46;;;;;;;10.88;9.77;;;6.40;99.90;;;;;;5094217;28;20031;-52
2022/11/10 00:17:03;;;;;;;11.68;10.45;;;6.40;99.90;;;;;;5095470;28;20097;-51
2022/11/10 00:19:31;;;;;;;11.07;9.98;;;6.40;99.90;;;;;;5093039;28;20047;-53
2022/11/10 00:21:57;;;;;;;12.50;11.10;;;6.50;99.90;;;;;;5093123;28;20052;-54
2022/11/10 00:24:23;;;;;;;13.25;11.02;;;6.40;99.90;;;;;;5093637;28;20093;-53
2022/11/10 00:26:50;;;;;;;13.00;11.57;;;6.40;99.90;;;;;;5094049;28;20024;-53
2022/11/10 00:29:16;;;;;;;13.57;12.15;;;6.40;99.90;;;;;;5094054;28;20386;-51
2022/11/10 00:31:42;;;;;;;12.57;11.27;;;6.40;99.90;;;;;;5094312;28;20040;-52
2022/11/10 00:34:14;;;;;;;15.82;12.70;;;6.40;99.90;;;;;;5092345;28;20120;-50
2022/11/10 00:36:40;;;;;;;13.07;11.57;;;6.50;99.90;;;;;;5094323;28;20069;-51
2022/11/10 00:39:06;;;;;;;14.15;11.65;;;6.50;99.90;;;;;;5093862;28;20028;-52
2022/11/10 00:41:31;;;;;;;14.25;12.85;;;6.50;99.90;;;;;;5094617;28;20024;-51
2022/11/10 00:43:57;;;;;;;12.77;11.50;;;6.50;99.90;;;;;;5093160;28;20035;-52
2022/11/10 00:46:23;;;;;;;13.93;11.35;;;6.60;99.90;;;;;;5093553;28;20024;-53
2022/11/10 00:48:48;;;;;;;13.60;12.27;;;6.60;99.90;;;;;;5093536;28;20059;-50
2022/11/10 00:51:22;;;;;;;14.15;11.60;;;6.70;99.90;;;;;;5093404;28;20024;-51
2022/11/10 00:53:49;;;;;;;12.60;11.30;;;6.70;99.90;;;;;;5094481;28;20020;-54
2022/11/10 00:56:14;;;;;;;12.43;11.10;;;6.70;99.90;;;;;;5092761;28;20057;-53
2022/11/10 00:58:41;;;;;;;14.30;11.65;;;6.70;99.90;;;;;;5092814;28;20028;-56
2022/11/10 01:01:07;;;;;;;13.25;11.85;;;6.70;99.90;;;;;;5093624;28;20020;-51
2022/11/10 01:03:33;;;;;;;15.32;11.75;;;6.80;99.90;;;;;;5093122;28;20486;-53
2022/11/10 01:06:04;;;;;;;12.50;11.20;;;6.80;99.90;;;;;;5093098;28;20022;-54
2022/11/10 01:08:31;;;;;;;13.60;11.65;;;6.80;99.90;;;;;;5094694;28;20036;-54
2022/11/10 01:11:05;;;;;;;13.65;11.40;;;6.90;99.90;;;;;;5092158;28;20390;-53
2022/11/10 01:13:31;;;;;;;13.90;11.40;;;6.90;99.90;;;;;;5090164;28;20028;-54
2022/11/10 01:16:01;;;;;;;13.23;11.65;;;6.90;99.90;;;;;;5093380;28;20035;-51
2022/11/10 01:18:27;;;;;;;13.93;11.35;;;6.90;99.90;;;;;;5092469;28;20126;-51
2022/11/10 01:20:52;;;;;;;13.70;11.32;;;6.90;99.90;;;;;;5091478;28;20059;-51
2022/11/10 01:23:18;;;;;;;13.27;11.20;;;7.00;99.90;;;;;;5092787;28;20119;-52
2022/11/10 01:25:44;;;;;;;14.00;12.50;;;7.00;99.90;;;;;;5092391;28;20020;-51
2022/11/10 01:28:09;;;;;;;13.93;12.52;;;7.00;99.90;;;;;;5092910;28;20074;-51
2022/11/10 01:30:35;;;;;;;14.07;12.57;;;7.00;99.90;;;;;;5093921;28;20097;-51
2022/11/10 01:33:01;;;;;;;12.38;11.07;;;7.00;99.90;;;;;;5092289;28;20025;-51
2022/11/10 01:35:26;;;;;;;13.70;12.32;;;7.00;99.90;;;;;;5092803;28;20052;-50
2022/11/10 01:37:52;;;;;;;15.18;11.43;;;7.00;99.90;;;;;;5093225;28;20366;-51
2022/11/10 01:40:19;;;;;;;13.07;11.57;;;7.10;99.90;;;;;;5092781;28;20099;-51
2022/11/10 01:42:51;;;;;;;15.10;12.48;;;7.10;99.90;;;;;;5078789;28;20480;-51
2022/11/10 01:45:23;;;;;;;14.00;12.47;;;7.10;99.90;;;;;;5072944;28;20032;-52
2022/11/10 01:47:54;;;;;;;14.40;12.40;;;7.20;99.90;;;;;;5070604;28;20610;-51
2022/11/10 01:50:22;;;;;;;14.35;12.02;;;7.20;99.90;;;;;;5071722;28;20028;-51
2022/11/10 01:52:51;;;;;;;13.65;11.82;;;7.20;99.90;;;;;;5073463;28;20052;-55
2022/11/10 01:55:17;;;;;;;13.55;12.05;;;7.20;99.90;;;;;;5072429;28;20029;-50
2022/11/10 01:57:44;;;;;;;16.58;12.77;;;7.20;99.90;;;;;;5072666;28;20028;-52
2022/11/10 02:00:10;;;;;;;15.30;12.45;;;7.20;99.90;;;;;;5071705;28;20367;-50
2022/11/10 02:02:54;;;;;;;15.23;12.68;;;7.20;99.90;;;;;;5072615;28;20020;-54
2022/11/10 02:05:23;;;;;;;13.82;11.57;;;7.30;99.90;;;;;;5072215;28;20053;-52
2022/11/10 02:07:50;;;;;;;12.18;10.95;;;7.30;99.90;;;;;;5072173;28;20042;-51
2022/11/10 02:10:19;;;;;;;14.63;12.18;;;7.40;99.90;;;;;;5071725;28;20106;-52
2022/11/10 02:12:46;;;;;;;16.88;12.93;;;7.30;99.90;;;;;;5074268;28;20032;-52
2022/11/10 02:15:14;;;;;;;16.45;12.57;;;7.30;99.90;;;;;;5072135;28;20086;-51
2022/11/10 02:17:40;;;;;;;14.45;12.70;;;7.30;99.90;;;;;;5071808;28;20012;-51
2022/11/10 02:20:09;;;;;;;16.38;12.82;;;7.30;99.90;;;;;;5070222;28;20041;-51
2022/11/10 02:22:36;;;;;;;17.58;14.32;;;7.30;99.90;;;;;;5072400;28;20025;-51
2022/11/10 02:25:04;;;;;;;14.43;11.85;;;7.40;99.90;;;;;;5072902;28;20047;-52
2022/11/10 02:27:30;;;;;;;17.23;13.05;;;7.30;99.90;;;;;;5075745;28;20017;-50
2022/11/10 02:29:56;;;;;;;14.98;13.27;;;7.30;99.90;;;;;;5075009;28;20090;-52
2022/11/10 02:32:22;;;;;;;19.23;13.40;;;7.40;99.90;;;;;;5077631;28;20028;-52
2022/11/10 02:34:48;;;;;;;17.92;13.48;;;7.40;99.90;;;;;;5076261;28;20375;-53
2022/11/10 02:37:13;;;;;;;16.48;13.82;;;7.40;99.90;;;;;;5076762;28;20020;-54
2022/11/10 02:39:39;;;;;;;14.82;13.32;;;7.50;99.90;;;;;;5075868;28;20098;-52
2022/11/10 02:42:09;;;;;;;18.65;13.45;;;7.50;99.90;;;;;;5076211;28;20032;-52
2022/11/10 02:44:38;;;;;;;15.90;12.38;;;7.50;99.90;;;;;;5076730;28;20058;-51
2022/11/10 02:47:05;;;;;;;15.45;12.93;;;7.50;99.90;;;;;;5076352;28;20016;-51
2022/11/10 02:49:31;;;;;;;14.93;12.60;;;7.50;99.90;;;;;;5076220;28;20032;-50
2022/11/10 02:51:57;;;;;;;18.30;13.93;;;7.60;99.90;;;;;;5076122;28;20020;-54
2022/11/10 02:54:24;;;;;;;14.73;12.45;;;7.60;99.90;;;;;;5074485;28;20387;-55
2022/11/10 02:56:49;;;;;;;16.25;13.05;;;7.60;99.90;;;;;;5075861;28;20024;-53
2022/11/10 02:59:15;;;;;;;18.75;12.13;;;7.70;99.90;;;;;;5075593;28;20055;-54
2022/11/10 03:01:41;;;;;;;15.77;12.65;;;7.70;99.90;;;;;;5075930;28;20025;-51
2022/11/10 03:04:07;;;;;;;17.33;13.35;;;7.70;99.90;;;;;;5075252;28;20016;-51
2022/11/10 03:06:32;;;;;;;16.13;13.38;;;7.80;99.90;;;;;;5076593;28;20090;-54
2022/11/10 03:08:58;;;;;;;16.80;13.68;;;7.80;99.90;;;;;;5077019;28;20032;-53
2022/11/10 03:11:24;;;;;;;14.85;12.40;;;7.80;99.90;;;;;;5074806;28;20046;-54
2022/11/10 03:13:51;;;;;;;15.30;13.15;;;7.80;99.90;;;;;;5076256;28;20017;-55
2022/11/10 03:16:17;;;;;;;17.48;12.63;;;7.90;99.90;;;;;;5076493;28;20074;-51
2022/11/10 03:18:42;;;;;;;14.48;12.98;;;7.90;99.90;;;;;;5076088;28;20052;-52
2022/11/10 03:21:08;;;;;;;13.60;11.55;;;7.90;99.90;;;;;;5075039;28;20032;-55
2022/11/10 03:23:35;;;;;;;14.10;12.60;;;7.90;99.90;;;;;;5077216;28;20371;-53
2022/11/10 03:26:05;;;;;;;15.07;13.38;;;7.90;99.90;;;;;;5074903;28;20426;-55
2022/11/10 03:28:31;;;;;;;16.58;12.85;;;8.00;99.90;;;;;;5074302;28;20027;-50
2022/11/10 03:30:56;;;;;;;18.10;13.95;;;8.00;99.90;;;;;;5075537;28;20021;-56
2022/11/10 03:33:22;;;;;;;15.45;12.85;;;8.10;99.90;;;;;;5075282;28;20013;-53
2022/11/10 03:35:48;;;;;;;16.98;14.23;;;8.00;99.90;;;;;;5075967;28;20076;-54
2022/11/10 03:38:13;;;;;;;15.07;12.45;;;8.10;99.90;;;;;;5073407;28;20467;-51
2022/11/10 03:40:39;;;;;;;16.58;13.07;;;8.10;99.90;;;;;;5074612;28;20063;-51
2022/11/10 03:43:05;;;;;;;15.82;14.10;;;8.10;99.90;;;;;;5074287;28;20082;-51
2022/11/10 03:45:30;;;;;;;17.48;15.68;;;8.20;99.90;;;;;;5075447;28;20024;-52
2022/11/10 03:47:56;;;;;;;21.10;16.00;;;8.30;99.90;;;;;;5074614;28;20032;-54
2022/11/10 03:50:22;;;;;;;16.90;13.93;;;8.30;99.90;;;;;;5075103;28;20063;-54
2022/11/10 03:52:47;;;;;;;21.73;17.10;;;8.30;99.90;;;;;;5074072;28;20810;-53
2022/11/10 03:55:16;;;;;;;19.58;17.52;;;8.40;99.90;;;;;;5074590;28;20115;-52
2022/11/10 03:57:41;;;;;;;16.40;14.80;;;8.50;99.90;;;;;;5074340;28;20115;-54
2022/11/10 04:00:09;;;;;;;17.63;15.80;;;8.50;99.90;;;;;;5074836;28;20115;-53
2022/11/10 04:02:35;;;;;;;15.27;13.40;;;8.60;99.90;;;;;;5074457;28;20074;-54
2022/11/10 04:10:30;;;;;;;17.33;11.70;;;9.00;99.90;;;;;;5074391;28;20055;-54
2022/11/10 04:15:43;;;;;;;14.05;12.50;;;9.30;99.90;;;;;;5075167;28;20120;-52
2022/11/10 04:18:25;;;;;;;11.40;10.18;;;9.30;99.90;;;;;;5073567;28;20460;-52
2022/11/10 04:20:59;;;;;;;10.20;9.18;;;9.50;99.90;;;;;;5072237;28;20028;-53
2022/11/10 04:23:27;;;;;;;13.02;10.93;;;9.50;99.90;;;;;;5074181;28;20020;-56
2022/11/10 04:28:48;;;;;;;10.80;9.60;;;9.60;99.90;;;;;;5073118;28;20043;-51
2022/11/10 04:31:15;;;;;;;15.38;11.77;;;9.70;99.90;;;;;;5072401;28;20031;-51
2022/11/10 04:33:42;;;;;;;10.98;9.85;;;9.70;99.90;;;;;;5074286;28;20032;-52
2022/11/10 04:36:10;;;;;;;62.35;29.85;;;9.70;99.90;;;;;;5073526;28;20027;-52
2022/11/10 04:38:36;;;;;;;54.97;25.30;;;9.70;99.90;;;;;;5073493;28;20029;-52
2022/11/10 04:41:02;;;;;;;20.17;12.45;;;9.70;99.90;;;;;;5073383;28;20086;-54
2022/11/10 04:43:30;;;;;;;14.85;11.80;;;9.70;99.90;;;;;;5073114;28;20410;-53
2022/11/10 04:45:56;;;;;;;10.57;9.10;;;9.70;99.90;;;;;;5073155;28;20028;-51
2022/11/10 04:48:22;;;;;;;16.27;11.50;;;9.70;99.90;;;;;;5072587;28;20013;-54
2022/11/10 04:50:48;;;;;;;12.45;10.95;;;9.70;99.90;;;;;;5073058;28;20112;-54
2022/11/10 04:53:13;;;;;;;10.35;9.25;;;9.70;99.90;;;;;;5071233;28;20482;-54
2022/11/10 04:55:43;;;;;;;9.75;8.13;;;9.70;99.90;;;;;;5074119;28;20103;-50
2022/11/10 04:58:09;;;;;;;13.75;8.93;;;9.80;99.90;;;;;;5073942;28;20020;-56
2022/11/10 05:00:36;;;;;;;11.80;10.27;;;9.70;99.90;;;;;;5073260;28;20559;-55
2022/11/10 05:03:04;;;;;;;9.93;8.57;;;9.70;99.90;;;;;;5072590;28;20020;-54
2022/11/10 05:05:30;;;;;;;10.18;8.93;;;9.70;99.90;;;;;;5074790;28;20052;-54
2022/11/10 05:07:56;;;;;;;11.23;10.00;;;9.70;99.90;;;;;;5073282;28;20021;-55
2022/11/10 05:10:23;;;;;;;10.80;9.25;;;9.70;99.90;;;;;;5073101;28;20025;-52
2022/11/10 05:12:48;;;;;;;11.82;10.35;;;9.70;99.90;;;;;;5072508;28;20029;-55
2022/11/10 05:15:14;;;;;;;11.93;10.60;;;9.70;99.90;;;;;;5073175;28;20120;-52
2022/11/10 05:17:40;;;;;;;11.75;10.63;;;9.70;99.90;;;;;;5072152;28;20028;-53
2022/11/10 05:20:06;;;;;;;12.57;10.30;;;9.70;99.90;;;;;;5073443;28;20186;-52
2022/11/10 05:22:32;;;;;;;13.27;10.00;;;9.70;99.90;;;;;;5072509;28;20681;-53
2022/11/10 05:24:57;;;;;;;10.88;8.93;;;9.70;99.90;;;;;;5072095;28;20032;-53
2022/11/10 05:27:23;;;;;;;10.50;9.40;;;9.70;99.90;;;;;;5074366;28;20017;-53
2022/11/10 05:29:48;;;;;;;7.55;6.85;;;9.70;99.90;;;;;;5072868;28;20033;-52
2022/11/10 05:32:14;;;;;;;6.93;6.22;;;9.60;99.90;;;;;;5074161;28;20043;-52
2022/11/10 05:34:40;;;;;;;9.07;3.65;;;9.60;99.90;;;;;;5069688;28;20023;-53
2022/11/10 05:37:05;;;;;;;7.57;3.50;;;9.60;99.90;;;;;;5072704;28;20637;-52
2022/11/10 05:39:31;;;;;;;3.00;2.60;;;9.60;99.90;;;;;;5073165;28;20035;-53
2022/11/10 05:41:57;;;;;;;5.00;2.60;;;9.50;99.90;;;;;;5072756;28;20024;-52
2022/11/10 05:44:23;;;;;;;2.95;2.28;;;9.50;99.90;;;;;;5072713;28;20577;-54
2022/11/10 05:46:49;;;;;;;4.07;2.72;;;9.50;99.90;;;;;;5071412;28;20070;-53
2022/11/10 05:49:14;;;;;;;3.58;2.60;;;9.50;99.90;;;;;;5072202;28;20028;-51
2022/11/10 05:51:41;;;;;;;3.13;2.83;;;9.50;99.90;;;;;;5072862;28;20029;-51
2022/11/10 05:54:07;;;;;;;6.18;2.70;;;9.50;99.90;;;;;;5072279;28;20353;-51
2022/11/10 05:56:33;;;;;;;3.10;2.80;;;9.50;99.90;;;;;;5072699;28;20028;-56
2022/11/10 05:58:58;;;;;;;5.70;3.10;;;9.50;99.90;;;;;;5071357;28;20480;-53
2022/11/10 06:01:24;;;;;;;4.22;3.50;;;9.40;99.90;;;;;;5071057;28;20081;-51
2022/11/10 06:03:50;;;;;;;9.45;5.07;;;9.40;99.90;;;;;;5073058;28;20670;-51
2022/11/10 06:06:16;;;;;;;5.13;4.55;;;9.40;99.90;;;;;;5070824;28;20032;-51
2022/11/10 06:08:42;;;;;;;5.55;5.05;;;9.40;99.90;;;;;;5071903;28;20105;-55
2022/11/10 06:11:08;;;;;;;8.80;5.30;;;9.40;99.90;;;;;;5072823;28;20443;-54
2022/11/10 06:13:33;;;;;;;5.07;4.60;;;9.40;99.90;;;;;;5072620;28;20368;-53
2022/11/10 06:15:59;;;;;;;5.63;5.00;;;9.40;99.90;;;;;;5074655;28;20028;-52
2022/11/10 06:18:25;;;;;;;6.90;5.05;;;9.50;99.90;;;;;;5071245;28;20044;-50
2022/11/10 06:20:51;;;;;;;6.13;5.00;;;9.60;99.90;;;;;;5071993;28;20099;-54
2022/11/10 06:23:17;;;;;;;8.45;5.75;;;9.60;99.90;;;;;;5072151;28;20028;-51
2022/11/10 06:25:43;;;;;;;8.40;4.05;;;9.50;99.90;;;;;;5073191;28;20089;-55
2022/11/10 06:28:09;;;;;;;5.72;5.18;;;9.60;99.90;;;;;;5072191;28;20052;-53
2022/11/10 06:30:36;;;;;;;7.65;4.53;;;9.60;99.90;;;;;;5073720;28;20056;-53
2022/11/10 06:33:02;;;;;;;6.85;4.22;;;9.70;99.90;;;;;;5071920;28;20082;-52
2022/11/10 06:35:28;;;;;;;7.00;6.13;;;9.70;99.90;;;;;;5073457;28;20032;-55
2022/11/10 06:38:05;;;;;;;7.00;6.30;;;9.70;99.90;;;;;;5072545;28;20053;-51
2022/11/10 06:40:32;;;;;;;7.25;5.75;;;9.60;99.90;;;;;;5071709;28;20479;-53
2022/11/10 06:42:58;;;;;;;10.77;5.88;;;9.70;99.90;;;;;;5073783;28;20471;-53
2022/11/10 06:45:24;;;;;;;5.82;4.47;;;9.70;99.90;;;;;;5069798;28;20025;-50
2022/11/10 06:47:59;;;;;;;4.05;3.65;;;9.70;99.90;;;;;;5072407;28;20024;-51
2022/11/10 06:50:24;;;;;;;4.30;3.90;;;9.70;99.90;;;;;;5072621;28;20123;-57
2022/11/10 06:52:55;;;;;;;6.13;4.65;;;9.70;99.90;;;;;;5073925;28;20476;-52
2022/11/10 06:55:20;;;;;;;11.73;4.78;;;9.70;99.90;;;;;;5072478;28;20070;-51
2022/11/10 06:57:46;;;;;;;7.93;5.75;;;9.70;99.90;;;;;;5073208;28;20510;-53
2022/11/10 07:00:14;;;;;;;6.32;5.72;;;9.70;99.90;;;;;;5070599;28;20036;-55
2022/11/10 07:02:39;;;;;;;8.30;5.63;;;9.70;99.90;;;;;;5073201;28;20013;-55
2022/11/10 07:05:05;;;;;;;6.35;4.80;;;9.70;99.90;;;;;;5070001;28;20012;-53
2022/11/10 07:07:31;;;;;;;5.80;4.72;;;9.70;99.90;;;;;;5072619;28;20391;-52
2022/11/10 07:09:56;;;;;;;5.80;4.53;;;9.70;99.90;;;;;;5071417;28;20107;-50
2022/11/10 07:12:23;;;;;;;6.90;4.80;;;9.70;99.90;;;;;;5072046;28;20403;-54
2022/11/10 07:14:49;;;;;;;3.83;3.40;;;9.80;99.90;;;;;;5075801;28;20025;-52
2022/11/10 07:17:14;;;;;;;4.63;3.33;;;9.90;99.90;;;;;;5073586;28;20048;-51
2022/11/10 07:19:40;;;;;;;7.47;3.35;;;9.90;99.90;;;;;;5074000;28;20375;-54
2022/11/10 07:22:06;;;;;;;2.85;2.65;;;10.00;99.90;;;;;;5075976;28;20001;-53
2022/11/10 07:24:32;;;;;;;3.30;3.00;;;10.00;99.90;;;;;;5076199;28;20052;-56
2022/11/10 07:26:58;;;;;;;4.40;3.05;;;10.00;99.90;;;;;;5076246;28;20067;-53
2022/11/10 07:29:24;;;;;;;5.75;4.18;;;10.00;99.90;;;;;;5073575;28;20047;-51
2022/11/10 07:35:12;;;;;;;4.13;3.72;;;10.20;99.90;;;;;;5074905;28;20032;-51
2022/11/10 07:37:38;;;;;;;6.50;3.70;;;10.20;99.90;;;;;;5092190;28;20028;-52
2022/11/10 07:40:04;;;;;;;8.32;5.18;;;10.20;99.90;;;;;;5095172;28;20032;-55
2022/11/10 07:42:31;;;;;;;8.63;6.80;;;10.20;99.90;;;;;;5096223;28;20016;-50
2022/11/10 07:44:57;;;;;;;7.75;6.65;;;10.20;99.90;;;;;;5094639;28;20458;-53
2022/11/10 07:47:23;;;;;;;12.88;6.63;;;10.10;99.90;;;;;;5095894;28;20120;-54
2022/11/10 07:49:49;;;;;;;4.95;4.50;;;10.10;99.90;;;;;;5096916;28;20360;-52
2022/11/10 07:52:14;;;;;;;30.25;17.83;;;10.20;99.90;;;;;;5094125;28;20105;-52
2022/11/10 07:54:40;;;;;;;13.82;6.05;;;10.10;99.90;;;;;;5095957;28;20030;-54
2022/11/10 07:57:06;;;;;;;60.40;26.20;;;10.10;99.90;;;;;;5095086;28;20443;-55
2022/11/10 07:59:31;;;;;;;52.85;21.98;;;10.00;99.90;;;;;;5094967;28;20028;-52
2022/11/10 08:01:58;;;;;;;36.13;17.08;;;10.00;99.90;;;;;;5093599;28;20027;-53
2022/11/10 08:04:24;;;;;;;136.18;52.95;;;10.10;99.90;;;;;;5094209;28;20379;-53
2022/11/10 08:06:49;;;;;;;15.38;7.47;;;10.00;99.90;;;;;;5096024;28;20028;-54
2022/11/10 08:09:15;;;;;;;129.23;56.30;;;10.10;99.90;;;;;;5110117;28;20038;-52
2022/11/10 08:11:41;;;;;;;15.38;11.23;;;10.10;99.90;;;;;;5093442;28;20056;-55
2022/11/10 08:14:06;;;;;;;17.45;8.80;;;10.10;99.90;;;;;;5095563;28;20459;-50
2022/11/10 08:16:32;;;;;;;7.05;4.65;;;10.00;99.90;;;;;;5095150;28;20055;-53
2022/11/10 08:18:58;;;;;;;12.60;8.70;;;10.10;99.90;;;;;;5096303;28;20055;-52
2022/11/10 08:21:24;;;;;;;6.35;4.90;;;10.30;99.90;;;;;;5094585;28;20016;-54
2022/11/10 08:23:49;;;;;;;6.82;4.30;;;10.40;99.90;;;;;;5095282;28;20375;-54
2022/11/10 08:26:16;;;;;;;5.43;4.78;;;10.40;99.90;;;;;;5093852;28;20035;-54
2022/11/10 08:28:43;;;;;;;6.82;4.38;;;10.50;99.90;;;;;;5095345;28;20124;-54
2022/11/10 08:31:08;;;;;;;5.07;4.38;;;10.60;99.90;;;;;;5094501;28;20020;-55
2022/11/10 08:33:34;;;;;;;5.93;4.35;;;10.60;99.90;;;;;;5093848;28;20036;-54
2022/11/10 08:36:01;;;;;;;7.55;4.57;;;10.60;99.90;;;;;;5094066;28;20022;-54
2022/11/10 08:38:27;;;;;;;8.13;5.15;;;10.60;99.90;;;;;;5093777;28;20017;-54
2022/11/10 08:40:55;;;;;;;5.07;4.43;;;10.70;99.90;;;;;;5094101;28;20030;-53
2022/11/10 08:43:21;;;;;;;9.85;4.97;;;10.70;99.90;;;;;;5094655;28;20024;-53
2022/11/10 08:45:46;;;;;;;4.55;4.05;;;10.70;99.90;;;;;;5095833;28;20031;-56
2022/11/10 08:48:17;;;;;;;5.90;4.18;;;10.60;99.90;;;;;;5094849;28;20024;-53
2022/11/10 08:50:44;;;;;;;6.97;4.38;;;10.60;99.90;;;;;;5095049;28;20028;-54
2022/11/10 08:53:16;;;;;;;9.95;4.82;;;10.60;99.90;;;;;;5093865;28;20077;-52
2022/11/10 08:55:42;;;;;;;6.70;4.88;;;10.60;99.90;;;;;;5096241;28;20719;-54
2022/11/10 08:58:14;;;;;;;7.43;4.40;;;10.60;99.90;;;;;;5094657;28;20028;-56
2022/11/10 09:00:40;;;;;;;10.88;4.88;;;10.70;99.90;;;;;;5108863;28;20119;-52
2022/11/10 09:03:17;;;;;;;9.90;5.82;;;10.70;99.90;;;;;;5093818;28;20530;-54
2022/11/10 09:05:44;;;;;;;5.43;4.75;;;10.60;99.90;;;;;;5093351;28;20072;-55
2022/11/10 09:08:10;;;;;;;6.70;5.40;;;10.70;99.90;;;;;;5109759;28;20103;-54
2022/11/10 09:10:51;;;;;;;5.43;4.72;;;10.90;99.90;;;;;;5093005;28;20046;-56
2022/11/10 09:13:20;;;;;;;7.70;4.22;;;10.90;99.90;;;;;;5095653;28;20364;-53
2022/11/10 09:15:45;;;;;;;4.97;4.50;;;10.90;99.90;;;;;;5093657;28;20004;-56
2022/11/10 09:18:12;;;;;;;5.25;4.75;;;10.90;99.90;;;;;;5091651;28;20048;-57
2022/11/10 09:20:39;;;;;;;5.18;4.63;;;10.70;99.90;;;;;;5091716;28;20024;-53
2022/11/10 09:23:10;;;;;;;5.25;4.75;;;10.70;99.90;;;;;;5092241;28;20524;-54
2022/11/10 09:25:55;;;;;;;9.68;4.88;;;10.70;99.90;;;;;;5094140;28;20483;-53
2022/11/10 09:28:22;;;;;;;9.43;5.00;;;10.70;99.90;;;;;;5092763;28;20107;-54
2022/11/10 09:30:50;;;;;;;7.53;5.07;;;10.70;99.90;;;;;;5108506;28;20498;-53
2022/11/10 09:33:16;;;;;;;5.50;4.32;;;10.70;99.90;;;;;;5094094;28;20024;-56
2022/11/10 09:35:42;;;;;;;7.40;5.03;;;10.70;99.90;;;;;;5091519;28;20832;-55
2022/11/10 09:38:08;;;;;;;5.88;4.57;;;10.60;99.90;;;;;;5095051;28;20379;-53
2022/11/10 09:41:04;;;;;;;10.25;4.70;;;10.70;99.90;;;;;;5094694;28;20112;-53
2022/11/10 09:43:39;;;;;;;5.82;4.97;;;10.70;99.90;;;;;;5093551;28;20528;-54
2022/11/10 09:46:36;;;;;;;5.50;4.95;;;10.80;99.90;;;;;;5092156;28;20103;-54
2022/11/10 09:49:31;;;;;;;6.95;5.50;;;10.80;99.90;;;;;;5092889;28;20107;-52
2022/11/10 09:51:59;;;;;;;5.00;4.45;;;11.00;99.90;;;;;;5088680;28;20127;-51
2022/11/10 09:54:42;;;;;;;9.23;5.03;;;11.20;99.90;;;;;;5091687;28;20115;-54
2022/11/10 09:57:12;;;;;;;5.40;3.35;;;11.70;99.90;;;;;;5093090;28;20024;-57
2022/11/10 09:59:39;;;;;;;5.22;4.00;;;12.30;99.90;;;;;;5108263;28;20131;-54
2022/11/10 10:02:29;;;;;;;7.65;4.53;;;12.40;99.90;;;;;;5094070;28;20020;-55
2022/11/10 10:05:13;;;;;;;7.00;4.88;;;12.40;99.90;;;;;;5092589;28;20046;-52
2022/11/10 10:07:50;;;;;;;8.63;5.05;;;12.10;99.90;;;;;;5094250;28;20013;-53
2022/11/10 10:10:26;;;;;;;12.73;5.50;;;12.00;99.90;;;;;;5108378;28;20016;-55
2022/11/10 10:13:22;;;;;;;8.95;5.47;;;11.70;99.90;;;;;;5109911;28;20021;-55
2022/11/10 10:16:15;;;;;;;13.15;6.43;;;11.30;99.90;;;;;;5093159;28;20081;-53
2022/11/10 10:18:41;;;;;;;7.40;5.28;;;11.50;99.90;;;;;;5093176;28;20435;-51
2022/11/10 10:21:44;;;;;;;6.65;5.95;;;11.50;99.90;;;;;;5093435;28;20024;-57
2022/11/10 10:24:13;;;;;;;11.45;5.35;;;11.70;99.90;;;;;;5094187;28;20016;-56
2022/11/10 10:26:47;;;;;;;19.58;11.40;;;11.80;99.90;;;;;;5092694;28;20086;-57
2022/11/10 10:29:22;;;;;;;6.18;3.70;;;12.10;99.90;;;;;;5091390;28;20447;-54
2022/11/10 10:31:50;;;;;;;8.90;6.15;;;12.10;99.90;;;;;;5092354;28;20036;-52
2022/11/10 10:34:19;;;;;;;8.10;4.53;;;12.00;99.90;;;;;;5092601;28;20062;-54
2022/11/10 10:36:45;;;;;;;13.68;6.00;;;12.00;99.90;;;;;;5093149;28;20056;-54
2022/11/10 10:39:43;;;;;;;7.18;4.30;;;11.80;99.90;;;;;;5095281;28;20374;-57
2022/11/10 10:42:30;;;;;;;8.40;4.35;;;11.80;99.90;;;;;;5108516;28;20107;-55
2022/11/10 10:45:14;;;;;;;5.60;4.10;;;11.90;99.90;;;;;;5090561;28;20040;-52
2022/11/10 10:47:40;;;;;;;12.93;5.65;;;11.90;99.90;;;;;;5095353;28;20149;-56
2022/11/10 10:50:23;;;;;;;6.40;4.95;;;11.80;99.90;;;;;;5094606;28;20024;-53
2022/11/10 10:53:08;;;;;;;7.72;3.97;;;11.60;99.90;;;;;;5111530;28;20665;-52
2022/11/10 10:55:35;;;;;;;15.00;9.65;;;11.70;99.90;;;;;;5098760;28;20455;-53
2022/11/10 10:58:04;;;;;;;15.68;4.60;;;11.60;99.90;;;;;;5093858;28;20072;-53
2022/11/10 11:00:30;;;;;;;15.93;8.52;;;11.70;99.90;;;;;;5097244;28;20456;-50
2022/11/10 11:03:11;;;;;;;10.02;5.93;;;11.70;99.90;;;;;;5095864;28;20020;-50
2022/11/10 11:05:37;;;;;;;8.98;4.93;;;11.60;99.90;;;;;;5099643;28;20020;-54
2022/11/10 11:08:03;;;;;;;11.68;5.03;;;11.80;99.90;;;;;;5095925;28;20036;-53
2022/11/10 11:10:34;;;;;;;13.00;7.95;;;12.00;99.90;;;;;;5094897;28;20028;-51
2022/11/10 11:13:22;;;;;;;5.32;4.80;;;12.20;99.90;;;;;;5097865;28;20351;-55
2022/11/10 11:16:07;;;;;;;7.68;4.85;;;12.30;99.90;;;;;;5096480;28;20375;-54
2022/11/10 11:18:34;;;;;;;9.73;6.57;;;12.50;99.90;;;;;;5095695;28;20048;-55
2022/11/10 11:21:17;;;;;;;4.93;4.10;;;12.80;99.90;;;;;;5095113;28;20367;-53
2022/11/10 11:24:07;;;;;;;6.07;4.68;;;13.10;99.90;;;;;;5097166;28;20008;-55
2022/11/10 11:26:45;;;;;;;9.75;3.85;;;13.30;99.90;;;;;;5095808;28;20016;-55
2022/11/10 11:29:29;;;;;;;17.88;10.55;;;13.60;99.90;;;;;;5095089;28;20363;-56
2022/11/10 11:32:32;;;;;;;12.57;7.10;;;14.60;99.90;;;;;;5095177;28;20029;-54
2022/11/10 11:35:18;;;;;;;11.48;6.82;;;16.20;99.90;;;;;;5096537;28;20043;-55
2022/11/10 11:37:59;;;;;;;11.55;7.38;;;16.00;99.90;;;;;;5095648;28;20091;-55
2022/11/10 11:40:49;;;;;;;13.05;5.65;;;16.50;99.90;;;;;;5097422;28;20437;-56
2022/11/10 11:43:50;;;;;;;9.45;6.90;;;18.30;98.90;;;;;;5096804;28;20012;-52
2022/11/10 11:46:36;;;;;;;11.85;5.38;;;20.10;97.00;;;;;;5081016;28;20044;-56
2022/11/10 11:49:23;;;;;;;6.93;4.68;;;19.50;93.80;;;;;;5094973;28;20028;-57
2022/11/10 11:51:53;;;;;;;10.13;5.78;;;18.60;95.80;;;;;;5096382;28;20028;-55
2022/11/10 11:54:25;;;;;;;7.45;3.28;;;17.60;98.10;;;;;;5094059;28;20474;-54
2022/11/10 11:56:51;;;;;;;5.80;3.53;;;16.90;99.00;;;;;;5095458;28;20024;-57
2022/11/10 12:00:04;;;;;;;8.15;4.88;;;16.20;99.90;;;;;;5093625;28;20020;-54
2022/11/10 12:02:45;;;;;;;5.35;3.28;;;16.80;98.70;;;;;;5089632;28;20032;-56
2022/11/10 12:05:30;;;;;;;4.75;2.20;;;19.10;96.10;;;;;;5093818;28;20008;-54
2022/11/10 12:08:04;;;;;;;4.65;1.95;;;20.10;92.90;;;;;;5093456;28;20363;-57
2022/11/10 12:10:30;;;;;;;8.25;2.38;;;20.20;91.70;;;;;;5095032;28;20146;-55
2022/11/10 12:13:04;;;;;;;6.47;2.58;;;21.00;91.20;;;;;;5094115;28;20110;-55
2022/11/10 12:15:48;;;;;;;7.40;2.80;;;21.40;89.20;;;;;;5094746;28;20111;-56
2022/11/10 12:18:31;;;;;;;3.25;1.75;;;22.70;83.60;;;;;;5095534;28;20028;-53
2022/11/10 12:21:11;;;;;;;6.10;1.98;;;21.10;81.30;;;;;;5094542;28;20123;-53
2022/11/10 12:24:01;;;;;;;8.27;2.30;;;20.70;83.70;;;;;;5095536;28;20396;-55
2022/11/10 12:26:54;;;;;;;3.85;2.35;;;21.40;83.10;;;;;;5092871;28;20024;-50
2022/11/10 12:29:36;;;;;;;4.85;2.08;;;20.80;82.20;;;;;;5093711;28;20016;-53
2022/11/10 12:32:15;;;;;;;5.20;2.35;;;20.00;83.00;;;;;;5093601;28;20021;-54
2022/11/10 12:34:52;;;;;;;9.15;2.45;;;19.20;83.70;;;;;;5092012;28;20112;-56
2022/11/10 12:37:48;;;;;;;13.43;2.72;;;18.90;85.40;;;;;;5093289;28;20021;-53
2022/11/10 12:40:15;;;;;;;10.98;2.92;;;18.00;89.70;;;;;;5093374;28;20043;-56
2022/11/10 12:42:44;;;;;;;8.77;3.22;;;17.20;91.10;;;;;;5093615;28;20028;-54
2022/11/10 12:45:17;;;;;;;4.60;2.88;;;16.50;92.90;;;;;;5093342;28;20524;-57
2022/11/10 12:47:45;;;;;;;7.95;3.65;;;15.30;94.70;;;;;;5092972;28;20021;-53
2022/11/10 12:50:26;;;;;;;24.95;3.47;;;14.70;97.20;;;;;;5093221;28;20047;-57
2022/11/10 12:52:56;;;;;;;14.82;3.97;;;14.40;99.50;;;;;;5093127;28;20398;-53
2022/11/10 12:55:33;;;;;;;11.65;3.00;;;15.00;99.70;;;;;;5093144;28;20032;-56
2022/11/10 12:58:00;;;;;;;8.02;3.30;;;14.80;98.20;;;;;;5093063;28;20119;-53
2022/11/10 13:00:30;;;;;;;10.00;3.75;;;14.50;98.80;;;;;;5092801;28;20455;-53
2022/11/10 13:02:57;;;;;;;16.15;3.28;;;14.50;99.90;;;;;;5091689;28;20054;-55
2022/11/10 13:05:29;;;;;;;9.63;3.20;;;14.40;99.90;;;;;;5092791;28;20416;-56
2022/11/10 13:08:13;;;;;;;8.88;2.95;;;14.90;99.30;;;;;;5092947;28;20028;-58
2022/11/10 13:11:01;;;;;;;12.20;3.42;;;15.00;98.10;;;;;;5090429;28;20081;-54
2022/11/10 13:13:27;;;;;;;33.15;3.85;;;15.10;98.80;;;;;;5085612;28;20032;-57
2022/11/10 13:15:55;;;;;;;6.90;3.13;;;14.80;99.80;;;;;;5092740;28;20357;-56